Time;durP1;ratioP1;P1;durP2;ratioP2;P2;SDS_P1;SDS_P2;PMS_P1;PMS_P2;Temp;Humidity;BMP_temperature;BMP_pressure;BME280_temperature;BME280_humidity;BME280_pressure;Samples;Min_cycle;Max_cycle;Signal;HPM_P1;HPM_P2
2022/03/13 00:02:08;;;;;;;;;;;9.00;99.90;;;;;;5034459;28;20039;-76
2022/03/13 00:04:35;;;;;;;;;;;9.00;99.90;;;;;;5034389;28;20006;-76
2022/03/13 00:07:04;;;;;;;;;;;9.00;99.90;;;;;;5034232;28;20390;-76
2022/03/13 00:09:30;;;;;;;;;;;9.00;99.90;;;;;;5034154;28;20056;-75
2022/03/13 00:11:55;;;;;;;;;;;9.10;99.90;;;;;;5034427;28;20381;-75
2022/03/13 00:14:25;;;;;;;;;;;9.10;99.90;;;;;;5034047;28;19909;-75
2022/03/13 00:16:51;;;;;;;;;;;9.20;99.90;;;;;;5034030;28;20399;-75
2022/03/13 00:19:19;;;;;;;;;;;9.20;99.90;;;;;;5034001;28;20401;-76
2022/03/13 00:21:49;;;;;;;;;;;9.10;99.90;;;;;;5034559;28;19936;-77
2022/03/13 00:24:20;;;;;;;;;;;9.00;99.90;;;;;;5034415;28;20055;-78
2022/03/13 00:26:51;;;;;;;;;;;9.00;99.90;;;;;;5034067;28;19916;-78
2022/03/13 00:29:17;;;;;;;;;;;8.90;99.90;;;;;;5033984;28;20266;-76
2022/03/13 00:31:43;;;;;;;;;;;8.90;99.90;;;;;;5032471;28;19913;-79
2022/03/13 00:34:08;;;;;;;;;;;8.90;99.90;;;;;;5033745;28;19910;-77
2022/03/13 00:36:34;;;;;;;;;;;8.90;99.90;;;;;;5033729;28;19909;-77
2022/03/13 00:38:59;;;;;;;;;;;8.90;99.90;;;;;;5033359;28;20386;-76
2022/03/13 00:41:25;;;;;;;;;;;8.90;99.90;;;;;;5033734;28;20294;-77
2022/03/13 00:43:50;;;;;;;;;;;8.90;99.90;;;;;;5033756;28;19909;-77
2022/03/13 00:46:16;;;;;;;;;;;8.90;99.90;;;;;;5032669;28;19916;-76
2022/03/13 00:48:42;;;;;;;;;;;8.90;99.90;;;;;;5034042;28;19956;-77
2022/03/13 00:51:08;;;;;;;;;;;8.90;99.90;;;;;;5033846;28;19944;-75
2022/03/13 00:53:33;;;;;;;;;;;9.00;99.90;;;;;;5033530;28;19909;-75
2022/03/13 00:55:59;;;;;;;;;;;9.00;99.90;;;;;;5033660;28;19916;-76
2022/03/13 00:58:25;;;;;;;;;;;9.00;99.90;;;;;;5033537;28;20489;-76
2022/03/13 01:00:50;;;;;;;;;;;9.10;99.90;;;;;;5033704;28;19916;-77
2022/03/13 01:03:28;;;;;;;;;;;9.10;99.90;;;;;;5033661;28;19916;-76
2022/03/13 01:05:53;;;;;;;;;;;9.10;99.90;;;;;;5033465;28;19920;-76
2022/03/13 01:08:19;;;;;;;;;;;9.20;99.90;;;;;;5033394;28;19909;-75
2022/03/13 01:10:44;;;;;;;;;;;9.20;99.90;;;;;;5033617;28;19914;-76
2022/03/13 01:13:10;;;;;;;;;;;9.30;99.90;;;;;;5033426;28;19980;-76
2022/03/13 01:15:38;;;;;;;;;;;9.30;99.90;;;;;;5033508;28;19988;-76
2022/03/13 01:18:03;;;;;;;;;;;9.30;99.90;;;;;;5034943;28;20397;-76
2022/03/13 01:20:29;;;;;;;;;;;9.20;99.90;;;;;;5037337;28;20008;-76
2022/03/13 01:22:55;;;;;;;;;;;9.20;99.90;;;;;;5037582;28;19931;-76
2022/03/13 01:25:20;;;;;;;;;;;9.20;99.90;;;;;;5035830;28;19913;-76
2022/03/13 01:27:46;;;;;;;;;;;9.20;99.90;;;;;;5037471;28;20273;-76
2022/03/13 01:30:14;;;;;;;;;;;9.20;99.90;;;;;;5037117;28;19913;-76
2022/03/13 01:32:40;;;;;;;;;;;9.20;99.90;;;;;;5037073;28;20404;-76
2022/03/13 01:35:05;;;;;;;;;;;9.10;99.90;;;;;;5037018;28;20285;-75
2022/03/13 01:37:35;;;;;;;;;;;9.10;99.90;;;;;;5036779;28;19917;-76
2022/03/13 01:40:03;;;;;;;;;;;9.10;99.90;;;;;;5037043;28;19909;-76
2022/03/13 01:42:28;;;;;;;;;;;9.00;99.90;;;;;;5037304;28;19991;-76
2022/03/13 01:44:54;;;;;;;;;;;9.00;99.90;;;;;;5036841;28;20330;-76
2022/03/13 01:47:20;;;;;;;;;;;9.00;99.90;;;;;;5036958;28;19997;-75
2022/03/13 01:49:46;;;;;;;;;;;9.00;99.90;;;;;;5037359;28;19916;-76
2022/03/13 01:52:12;;;;;;;;;;;9.00;99.90;;;;;;5036708;28;19913;-76
2022/03/13 01:54:39;;;;;;;;;;;9.00;99.90;;;;;;5036835;28;20366;-76
2022/03/13 01:57:05;;;;;;;;;;;9.00;99.90;;;;;;5036996;28;19909;-76
2022/03/13 01:59:31;;;;;;;;;;;8.90;99.90;;;;;;5036749;28;20281;-75
2022/03/13 02:01:57;;;;;;;;;;;9.00;99.90;;;;;;5035251;28;19935;-75
2022/03/13 02:04:24;;;;;;;;;;;8.90;99.90;;;;;;5036404;28;19962;-76
2022/03/13 02:06:50;;;;;;;;;;;8.90;99.90;;;;;;5036607;28;19917;-75
2022/03/13 02:09:15;;;;;;;;;;;8.90;99.90;;;;;;5036535;28;19909;-76
2022/03/13 02:11:42;;;;;;;;;;;8.90;99.90;;;;;;5034995;28;20067;-75
2022/03/13 02:14:10;;;;;;;;;;;8.80;99.90;;;;;;5036336;28;19909;-75
2022/03/13 02:16:35;;;;;;;;;;;8.80;99.90;;;;;;5035004;28;19909;-75
2022/03/13 02:19:01;;;;;;;;;;;8.80;99.90;;;;;;5036206;28;19996;-75
2022/03/13 02:21:28;;;;;;;;;;;8.80;99.90;;;;;;5036423;28;19910;-76
2022/03/13 02:24:01;;;;;;;;;;;8.90;99.90;;;;;;5036158;28;19932;-76
2022/03/13 02:26:26;;;;;;;;;;;8.80;99.90;;;;;;5034841;28;19975;-76
2022/03/13 02:28:53;;;;;;;;;;;8.80;99.90;;;;;;5035626;28;20362;-75
2022/03/13 02:31:25;;;;;;;;;;;8.90;99.90;;;;;;5035731;28;19916;-75
2022/03/13 02:33:52;;;;;;;;;;;8.80;99.90;;;;;;5035919;28;19952;-76
2022/03/13 02:36:33;;;;;;;;;;;8.80;99.90;;;;;;5034671;28;19909;-75
2022/03/13 02:38:58;;;;;;;;;;;8.70;99.90;;;;;;5034199;28;19921;-76
2022/03/13 02:41:26;;;;;;;;;;;8.70;99.90;;;;;;5035881;28;20305;-76
2022/03/13 02:43:52;;;;;;;;;;;8.70;99.90;;;;;;5035974;28;19956;-75
2022/03/13 02:46:22;;;;;;;;;;;8.70;99.90;;;;;;5035849;28;19910;-75
2022/03/13 02:48:48;;;;;;;;;;;8.60;99.90;;;;;;5035762;28;19955;-76
2022/03/13 02:51:14;;;;;;;;;;;8.60;99.90;;;;;;5035821;28;19909;-75
2022/03/13 02:53:40;;;;;;;;;;;8.40;99.90;;;;;;5034286;28;20335;-77
2022/03/13 02:56:06;;;;;;;;;;;8.40;99.90;;;;;;5034297;28;20391;-75
2022/03/13 02:58:32;;;;;;;;;;;8.30;99.90;;;;;;5035531;28;19909;-75
2022/03/13 03:00:57;;;;;;;;;;;8.30;99.90;;;;;;5034197;28;20374;-75
2022/03/13 03:03:23;;;;;;;;;;;8.30;99.90;;;;;;5035750;28;19916;-75
2022/03/13 03:05:49;;;;;;;;;;;8.30;99.90;;;;;;5035433;28;19952;-75
2022/03/13 03:08:15;;;;;;;;;;;8.20;99.90;;;;;;5035353;28;20424;-76
2022/03/13 03:10:41;;;;;;;;;;;8.20;99.90;;;;;;5035310;28;19955;-76
2022/03/13 03:13:10;;;;;;;;;;;8.20;99.90;;;;;;5035238;28;20262;-75
2022/03/13 03:15:36;;;;;;;;;;;8.20;99.90;;;;;;5035506;28;20028;-75
2022/03/13 03:18:03;;;;;;;;;;;8.20;99.90;;;;;;5035310;28;19972;-75
2022/03/13 03:20:28;;;;;;;;;;;8.20;99.90;;;;;;5035089;28;19909;-76
2022/03/13 03:22:55;;;;;;;;;;;8.20;99.90;;;;;;5035043;28;19915;-76
2022/03/13 03:25:22;;;;;;;;;;;8.20;99.90;;;;;;5034934;28;19920;-75
2022/03/13 03:27:48;;;;;;;;;;;8.20;99.90;;;;;;5035026;28;19909;-76
2022/03/13 03:30:14;;;;;;;;;;;8.20;99.90;;;;;;5033620;28;19953;-75
2022/03/13 03:32:39;;;;;;;;;;;8.30;99.90;;;;;;5034859;28;20404;-76
2022/03/13 03:35:05;;;;;;;;;;;8.20;99.90;;;;;;5035217;28;19941;-76
2022/03/13 03:37:34;;;;;;;;;;;8.20;99.90;;;;;;5034541;28;19917;-77
2022/03/13 03:39:59;;;;;;;;;;;8.20;99.90;;;;;;5034637;28;19971;-76
2022/03/13 03:42:25;;;;;;;;;;;8.20;99.90;;;;;;5034511;28;19909;-76
2022/03/13 03:44:50;;;;;;;;;;;8.30;99.90;;;;;;5034623;28;19913;-76
2022/03/13 03:47:16;;;;;;;;;;;8.20;99.90;;;;;;5034680;28;19909;-76
2022/03/13 03:49:42;;;;;;;;;;;8.10;99.90;;;;;;5034545;28;19919;-76
2022/03/13 03:52:07;;;;;;;;;;;8.20;99.90;;;;;;5034472;28;19936;-76
2022/03/13 03:54:33;;;;;;;;;;;8.20;99.90;;;;;;5034368;28;19932;-76
2022/03/13 03:56:59;;;;;;;;;;;8.20;99.90;;;;;;5034397;28;19910;-76
2022/03/13 03:59:24;;;;;;;;;;;8.30;99.90;;;;;;5034349;28;20318;-76
2022/03/13 04:01:50;;;;;;;;;;;8.30;99.90;;;;;;5034305;28;19910;-77
2022/03/13 04:04:16;;;;;;;;;;;8.20;99.90;;;;;;5032870;28;19913;-76
2022/03/13 04:06:42;;;;;;;;;;;8.20;99.90;;;;;;5034021;28;20067;-76
2022/03/13 04:09:08;;;;;;;;;;;8.20;99.90;;;;;;5034283;28;19948;-76
2022/03/13 04:11:34;;;;;;;;;;;8.30;99.90;;;;;;5034186;28;19913;-76
2022/03/13 04:14:00;;;;;;;;;;;8.20;99.90;;;;;;5032813;28;19909;-76
2022/03/13 04:16:26;;;;;;;;;;;8.20;99.90;;;;;;5032811;28;20012;-76
2022/03/13 04:18:52;;;;;;;;;;;8.30;99.90;;;;;;5032713;28;20407;-76
2022/03/13 04:21:17;;;;;;;;;;;8.30;99.90;;;;;;5034106;28;20055;-76
2022/03/13 04:23:43;;;;;;;;;;;8.30;99.90;;;;;;5033970;28;20386;-76
2022/03/13 04:26:09;;;;;;;;;;;8.40;99.90;;;;;;5033833;28;19919;-76
2022/03/13 04:28:35;;;;;;;;;;;8.30;99.90;;;;;;5032584;28;19916;-76
2022/03/13 04:31:00;;;;;;;;;;;8.30;99.90;;;;;;5033953;28;20480;-76
2022/03/13 04:33:27;;;;;;;;;;;8.40;99.90;;;;;;5033825;28;19992;-76
2022/03/13 04:35:55;;;;;;;;;;;8.40;99.90;;;;;;5033787;28;20000;-76
2022/03/13 04:38:21;;;;;;;;;;;8.40;99.90;;;;;;5032206;28;20352;-76
2022/03/13 04:40:47;;;;;;;;;;;8.40;99.90;;;;;;5033849;28;19913;-76
2022/03/13 04:43:12;;;;;;;;;;;8.40;99.90;;;;;;5033698;28;19913;-76
2022/03/13 04:45:38;;;;;;;;;;;8.50;99.90;;;;;;5033566;28;19913;-76
2022/03/13 04:48:04;;;;;;;;;;;8.50;99.90;;;;;;5032304;28;19909;-76
2022/03/13 04:50:29;;;;;;;;;;;8.60;99.90;;;;;;5033611;28;19951;-76
2022/03/13 04:52:55;;;;;;;;;;;8.60;99.90;;;;;;5033257;28;19917;-76
2022/03/13 04:55:20;;;;;;;;;;;8.50;99.90;;;;;;5033618;28;19909;-76
2022/03/13 04:57:46;;;;;;;;;;;8.60;99.90;;;;;;5033551;28;20361;-76
2022/03/13 05:00:12;;;;;;;;;;;8.60;99.90;;;;;;5034008;28;19913;-76
2022/03/13 05:02:37;;;;;;;;;;;8.60;99.90;;;;;;5033737;28;19909;-76
2022/03/13 05:05:03;;;;;;;;;;;8.70;99.90;;;;;;5033588;28;19913;-76
2022/03/13 05:07:29;;;;;;;;;;;8.90;99.90;;;;;;5033556;28;19917;-76
2022/03/13 05:09:55;;;;;;;;;;;8.80;99.90;;;;;;5033480;28;19935;-76
2022/03/13 05:12:27;;;;;;;;;;;8.80;99.90;;;;;;5033458;28;19909;-76
2022/03/13 05:14:53;;;;;;;;;;;8.70;99.90;;;;;;5033625;28;20020;-76
2022/03/13 05:17:18;;;;;;;;;;;8.70;99.90;;;;;;5033125;28;19945;-76
2022/03/13 05:19:44;;;;;;;;;;;8.70;99.90;;;;;;5033343;28;19948;-76
2022/03/13 05:22:10;;;;;;;;;;;8.70;99.90;;;;;;5033349;28;19909;-76
2022/03/13 05:24:36;;;;;;;;;;;8.70;99.90;;;;;;5031951;28;20370;-76
2022/03/13 05:27:02;;;;;;;;;;;8.60;99.90;;;;;;5033318;28;19909;-76
2022/03/13 05:29:27;;;;;;;;;;;8.60;99.90;;;;;;5033476;28;19944;-76
2022/03/13 05:31:53;;;;;;;;;;;8.60;99.90;;;;;;5033340;28;19977;-76
2022/03/13 05:34:18;;;;;;;;;;;8.60;99.90;;;;;;5033201;28;20278;-76
2022/03/13 05:36:46;;;;;;;;;;;8.60;99.90;;;;;;5033254;28;19909;-76
2022/03/13 05:39:11;;;;;;;;;;;8.60;99.90;;;;;;5032765;28;19927;-76
2022/03/13 05:41:39;;;;;;;;;;;8.70;99.90;;;;;;5033129;28;19992;-76
2022/03/13 05:44:05;;;;;;;;;;;8.70;99.90;;;;;;5033061;28;19909;-76
2022/03/13 05:46:32;;;;;;;;;;;8.70;99.90;;;;;;5033129;28;19909;-76
2022/03/13 05:48:57;;;;;;;;;;;8.70;99.90;;;;;;5031800;28;19916;-76
2022/03/13 05:51:23;;;;;;;;;;;8.70;99.90;;;;;;5033043;28;19909;-76
2022/03/13 05:53:49;;;;;;;;;;;8.70;99.90;;;;;;5033083;28;19909;-76
2022/03/13 05:56:14;;;;;;;;;;;8.70;99.90;;;;;;5033096;28;19963;-76
2022/03/13 05:58:40;;;;;;;;;;;8.70;99.90;;;;;;5032998;28;19948;-76
2022/03/13 06:01:06;;;;;;;;;;;8.80;99.90;;;;;;5032983;28;19909;-76
2022/03/13 06:03:32;;;;;;;;;;;8.70;99.90;;;;;;5033689;28;19992;-76
2022/03/13 06:05:58;;;;;;;;;;;8.70;99.90;;;;;;5036453;28;20035;-76
2022/03/13 06:08:24;;;;;;;;;;;8.80;99.90;;;;;;5036681;28;19916;-76
2022/03/13 06:10:51;;;;;;;;;;;8.80;99.90;;;;;;5036533;28;19909;-76
2022/03/13 06:13:18;;;;;;;;;;;8.80;99.90;;;;;;5036497;28;20365;-76
2022/03/13 06:15:43;;;;;;;;;;;8.80;99.90;;;;;;5036332;28;19909;-76
2022/03/13 06:18:10;;;;;;;;;;;8.80;99.90;;;;;;5036361;28;19963;-76
2022/03/13 06:20:36;;;;;;;;;;;8.80;99.90;;;;;;5036266;28;19941;-76
2022/03/13 06:23:03;;;;;;;;;;;8.90;99.90;;;;;;5034858;28;19936;-76
2022/03/13 06:25:29;;;;;;;;;;;8.90;99.90;;;;;;5036096;28;19912;-76
2022/03/13 06:27:55;;;;;;;;;;;8.90;99.90;;;;;;5036099;28;19952;-76
2022/03/13 06:30:21;;;;;;;;;;;8.90;99.90;;;;;;5036086;28;19909;-76
2022/03/13 06:32:47;;;;;;;;;;;8.90;99.90;;;;;;5036013;28;19940;-76
2022/03/13 06:35:13;;;;;;;;;;;8.90;99.90;;;;;;5035917;28;19953;-76
2022/03/13 06:37:39;;;;;;;;;;;9.00;99.90;;;;;;5035702;28;19924;-76
2022/03/13 06:40:06;;;;;;;;;;;8.90;99.90;;;;;;5035956;28;19910;-76
2022/03/13 06:42:32;;;;;;;;;;;9.00;99.90;;;;;;5035843;28;19909;-76
2022/03/13 06:44:58;;;;;;;;;;;8.90;99.90;;;;;;5035903;28;19920;-76
2022/03/13 06:47:24;;;;;;;;;;;8.90;99.90;;;;;;5036029;28;19909;-76
2022/03/13 06:49:50;;;;;;;;;;;8.90;99.90;;;;;;5035780;28;19959;-76
2022/03/13 06:52:15;;;;;;;;;;;9.00;99.90;;;;;;5035754;28;19909;-76
2022/03/13 06:54:43;;;;;;;;;;;9.00;99.90;;;;;;5035580;28;20336;-76
2022/03/13 06:57:09;;;;;;;;;;;9.10;99.90;;;;;;5035606;28;19916;-76
2022/03/13 06:59:34;;;;;;;;;;;9.10;99.90;;;;;;5035526;28;19909;-76
2022/03/13 07:02:00;;;;;;;;;;;9.10;99.90;;;;;;5034209;28;19959;-76
2022/03/13 07:04:26;;;;;;;;;;;9.10;99.90;;;;;;5035580;28;19959;-76
2022/03/13 07:06:51;;;;;;;;;;;9.00;99.90;;;;;;5035718;28;20388;-76
2022/03/13 07:09:17;;;;;;;;;;;9.10;99.90;;;;;;5035317;28;19909;-76
2022/03/13 07:11:45;;;;;;;;;;;9.20;99.90;;;;;;5035303;28;19914;-76
2022/03/13 07:14:11;;;;;;;;;;;9.20;99.90;;;;;;5035217;28;19909;-76
2022/03/13 07:16:37;;;;;;;;;;;9.10;99.90;;;;;;5034505;28;19916;-76
2022/03/13 07:19:03;;;;;;;;;;;9.20;99.90;;;;;;5035392;28;20059;-76
2022/03/13 07:21:28;;;;;;;;;;;9.30;99.90;;;;;;5033853;28;19944;-76
2022/03/13 07:23:54;;;;;;;;;;;9.20;99.90;;;;;;5035046;28;20332;-76
2022/03/13 07:26:20;;;;;;;;;;;9.20;99.90;;;;;;5034911;28;19920;-76
2022/03/13 07:28:45;;;;;;;;;;;9.30;99.90;;;;;;5035004;28;19909;-76
2022/03/13 07:31:11;;;;;;;;;;;9.30;99.90;;;;;;5034902;28;19913;-76
2022/03/13 07:33:36;;;;;;;;;;;9.30;99.90;;;;;;5035143;28;19909;-76
2022/03/13 07:36:03;;;;;;;;;;;9.30;99.90;;;;;;5035053;28;19940;-76
2022/03/13 07:38:28;;;;;;;;;;;9.30;99.90;;;;;;5033346;28;20354;-76
2022/03/13 07:40:54;;;;;;;;;;;9.50;99.90;;;;;;5034751;28;19937;-76
2022/03/13 07:43:19;;;;;;;;;;;9.50;99.90;;;;;;5034709;28;19909;-76
2022/03/13 07:45:45;;;;;;;;;;;9.40;99.90;;;;;;5034557;28;19913;-76
2022/03/13 07:48:11;;;;;;;;;;;9.40;99.90;;;;;;5034824;28;19948;-76
2022/03/13 07:50:36;;;;;;;;;;;9.50;99.90;;;;;;5033308;28;19910;-76
2022/03/13 07:53:02;;;;;;;;;;;9.50;99.90;;;;;;5034468;28;19920;-76
2022/03/13 07:55:28;;;;;;;;;;;9.50;99.90;;;;;;5034455;28;20381;-76
2022/03/13 07:57:54;;;;;;;;;;;9.40;99.90;;;;;;5034414;28;19909;-76
2022/03/13 08:00:22;;;;;;;;;;;9.60;99.90;;;;;;5033054;28;19949;-76
2022/03/13 08:02:52;;;;;;;;;;;9.50;99.90;;;;;;5034318;28;19909;-76
2022/03/13 08:05:18;;;;;;;;;;;9.60;99.90;;;;;;5034368;28;19971;-76
2022/03/13 08:07:46;;;;;;;;;;;9.60;99.90;;;;;;5034589;28;19909;-76
2022/03/13 08:10:12;;;;;;;;;;;9.70;99.90;;;;;;5034198;28;19924;-76
2022/03/13 08:12:38;;;;;;;;;;;9.60;99.90;;;;;;5034244;28;19909;-76
2022/03/13 08:15:07;;;;;;;;;;;9.70;99.90;;;;;;5034107;28;19916;-76
2022/03/13 08:17:34;;;;;;;;;;;9.80;99.90;;;;;;5032752;28;19913;-76
2022/03/13 08:20:00;;;;;;;;;;;9.80;99.90;;;;;;5034041;28;19909;-76
2022/03/13 08:22:25;;;;;;;;;;;9.90;99.90;;;;;;5033816;28;19910;-76
2022/03/13 08:24:51;;;;;;;;;;;10.00;99.90;;;;;;5034082;28;19919;-76
2022/03/13 08:27:16;;;;;;;;;;;10.00;99.90;;;;;;5033019;28;20333;-76
2022/03/13 08:29:42;;;;;;;;;;;10.00;99.90;;;;;;5033925;28;20431;-76
2022/03/13 08:32:08;;;;;;;;;;;10.00;99.90;;;;;;5033920;28;19909;-76
2022/03/13 08:34:39;;;;;;;;;;;10.00;99.90;;;;;;5032600;28;19947;-76
2022/03/13 08:37:05;;;;;;;;;;;10.00;99.90;;;;;;5033790;28;19995;-76
2022/03/13 08:39:31;;;;;;;;;;;10.10;99.90;;;;;;5033840;28;19910;-76
2022/03/13 08:41:57;;;;;;;;;;;10.20;99.90;;;;;;5033777;28;19999;-76
2022/03/13 08:44:22;;;;;;;;;;;10.20;99.90;;;;;;5033647;28;20014;-76
2022/03/13 08:46:48;;;;;;;;;;;10.30;99.90;;;;;;5033927;28;19909;-76
2022/03/13 08:49:14;;;;;;;;;;;10.30;99.90;;;;;;5033687;28;20288;-76
2022/03/13 08:51:40;;;;;;;;;;;10.30;99.90;;;;;;5033669;28;19916;-76
2022/03/13 08:54:06;;;;;;;;;;;10.50;99.90;;;;;;5033895;28;19913;-76
2022/03/13 08:56:31;;;;;;;;;;;10.20;99.90;;;;;;5032279;28;19936;-76
2022/03/13 08:58:57;;;;;;;;;;;10.30;99.90;;;;;;5033523;28;19959;-76
2022/03/13 09:01:24;;;;;;;;;;;10.60;99.90;;;;;;5033551;28;20008;-76
2022/03/13 09:03:51;;;;;;;;;;;10.70;99.90;;;;;;5033750;28;19910;-76
2022/03/13 09:06:16;;;;;;;;;;;10.80;99.90;;;;;;5033438;28;19913;-76
2022/03/13 09:08:42;;;;;;;;;;;10.70;99.90;;;;;;5033707;28;19967;-76
2022/03/13 09:11:08;;;;;;;;;;;11.00;99.90;;;;;;5033422;28;20293;-76
2022/03/13 09:13:33;;;;;;;;;;;10.80;99.90;;;;;;5033257;28;19975;-76
2022/03/13 09:15:59;;;;;;;;;;;11.20;99.90;;;;;;5033901;28;19909;-76
2022/03/13 09:18:24;;;;;;;;;;;11.20;99.90;;;;;;5033530;28;19916;-76
2022/03/13 09:20:50;;;;;;;;;;;11.30;99.90;;;;;;5032122;28;20279;-76
2022/03/13 09:23:16;;;;;;;;;;;11.20;99.90;;;;;;5033439;28;20293;-76
2022/03/13 09:25:41;;;;;;;;;;;11.10;99.90;;;;;;5033275;28;19970;-76
2022/03/13 09:28:07;;;;;;;;;;;11.50;99.90;;;;;;5033283;28;19989;-76
2022/03/13 09:30:32;;;;;;;;;;;11.70;99.90;;;;;;5033486;28;20286;-76
2022/03/13 09:32:58;;;;;;;;;;;11.70;99.90;;;;;;5031943;28;19936;-76
2022/03/13 09:35:24;;;;;;;;;;;11.40;99.90;;;;;;5031894;28;19915;-76
2022/03/13 09:37:50;;;;;;;;;;;11.40;99.90;;;;;;5033047;28;19960;-76
2022/03/13 09:40:19;;;;;;;;;;;11.50;99.90;;;;;;5036556;28;20270;-76
2022/03/13 09:42:45;;;;;;;;;;;11.60;99.90;;;;;;5036876;28;20387;-76
2022/03/13 09:45:12;;;;;;;;;;;12.00;99.90;;;;;;5037002;28;19913;-76
2022/03/13 09:47:38;;;;;;;;;;;12.00;99.90;;;;;;5036858;28;19954;-76
2022/03/13 09:50:05;;;;;;;;;;;12.10;99.90;;;;;;5036889;28;20437;-76
2022/03/13 09:52:33;;;;;;;;;;;12.40;99.90;;;;;;5036699;28;19916;-76
2022/03/13 09:54:59;;;;;;;;;;;12.60;99.90;;;;;;5035409;28;20059;-76
2022/03/13 09:57:25;;;;;;;;;;;13.00;99.90;;;;;;5037029;28;19952;-76
2022/03/13 09:59:50;;;;;;;;;;;13.00;99.90;;;;;;5036624;28;19948;-76
2022/03/13 10:02:16;;;;;;;;;;;12.80;99.90;;;;;;5036677;28;19909;-76
2022/03/13 10:04:41;;;;;;;;;;;13.20;99.90;;;;;;5036491;28;19920;-76
2022/03/13 10:07:07;;;;;;;;;;;13.40;99.90;;;;;;5037012;28;20051;-76
2022/03/13 10:09:33;;;;;;;;;;;13.20;99.90;;;;;;5036455;28;20281;-76
2022/03/13 10:12:08;;;;;;;;;;;13.20;99.90;;;;;;5035049;28;19916;-76
2022/03/13 10:14:35;;;;;;;;;;;13.80;99.90;;;;;;5036300;28;19909;-76
2022/03/13 10:17:01;;;;;;;;;;;14.60;99.90;;;;;;5036279;28;19909;-76
2022/03/13 10:19:27;;;;;;;;;;;14.90;99.90;;;;;;5036250;28;19932;-76
2022/03/13 10:22:00;;;;;;;;;;;15.40;99.90;;;;;;5036322;28;19924;-77
2022/03/13 10:24:26;;;;;;;;;;;15.80;99.90;;;;;;5036071;28;19913;-77
2022/03/13 10:27:11;;;;;;;;;;;16.00;99.90;;;;;;5036146;28;19932;-76
2022/03/13 10:29:37;;;;;;;;;;;15.60;99.90;;;;;;5025481;28;19909;-77
2022/03/13 10:32:05;;;;;;;;;;;16.20;99.90;;;;;;5036039;28;19967;-77
2022/03/13 10:34:31;;;;;;;;;;;17.50;99.90;;;;;;5036022;28;19916;-77
2022/03/13 10:36:57;;;;;;;;;;;17.80;99.70;;;;;;5036478;28;19909;-77
2022/03/13 10:39:22;;;;;;;;;;;19.00;99.90;;;;;;5035760;28;20309;-77
2022/03/13 10:41:53;;;;;;;;;;;19.20;97.70;;;;;;5035790;28;19916;-77
2022/03/13 10:44:21;;;;;;;;;;;18.70;98.10;;;;;;5036017;28;19932;-77
2022/03/13 10:46:54;;;;;;;;;;;18.80;96.10;;;;;;5035761;28;19975;-77
2022/03/13 10:49:44;;;;;;;;;;;19.30;95.70;;;;;;5034365;28;20009;-77
2022/03/13 10:52:25;;;;;;;;;;;19.40;95.10;;;;;;5035024;28;19916;-77
2022/03/13 10:54:51;;;;;;;;;;;18.40;96.20;;;;;;5034267;28;19913;-76
2022/03/13 10:57:17;;;;;;;;;;;16.40;97.50;;;;;;5035574;28;19909;-76
2022/03/13 10:59:43;;;;;;;;;;;16.20;98.60;;;;;;5035491;28;19920;-76
2022/03/13 11:02:16;;;;;;;;;;;17.00;97.10;;;;;;5035459;28;20369;-77
2022/03/13 11:04:45;;;;;;;;;;;18.70;94.70;;;;;;5035364;28;19913;-77
2022/03/13 11:07:11;;;;;;;;;;;18.10;95.20;;;;;;5035360;28;19909;-77
2022/03/13 11:09:36;;;;;;;;;;;17.60;95.70;;;;;;5035319;28;19979;-76
2022/03/13 11:12:06;;;;;;;;;;;18.00;93.10;;;;;;5035776;28;19971;-76
2022/03/13 11:14:34;;;;;;;;;;;17.10;96.50;;;;;;5034011;28;20369;-76
2022/03/13 11:17:01;;;;;;;;;;;16.60;95.10;;;;;;5033943;28;19909;-76
2022/03/13 11:19:28;;;;;;;;;;;18.40;92.90;;;;;;5035150;28;20373;-77
2022/03/13 11:21:54;;;;;;;;;;;19.10;90.50;;;;;;5035137;28;20020;-77
2022/03/13 11:24:20;;;;;;;;;;;20.50;89.80;;;;;;5033700;28;19916;-77
2022/03/13 11:26:46;;;;;;;;;;;20.80;84.10;;;;;;5034966;28;19909;-77
2022/03/13 11:29:11;;;;;;;;;;;20.10;80.50;;;;;;5035135;28;20008;-77
2022/03/13 11:31:40;;;;;;;;;;;18.40;84.80;;;;;;5034882;28;19949;-76
2022/03/13 11:34:12;;;;;;;;;;;18.60;82.60;;;;;;5033609;28;19913;-77
2022/03/13 11:36:39;;;;;;;;;;;18.80;77.50;;;;;;5033497;28;19909;-77
2022/03/13 11:39:06;;;;;;;;;;;20.30;76.60;;;;;;5034571;28;19975;-77
2022/03/13 11:41:42;;;;;;;;;;;20.40;76.70;;;;;;5035225;28;19909;-77
2022/03/13 11:44:20;;;;;;;;;;;20.30;74.10;;;;;;5034904;28;19945;-77
2022/03/13 11:46:47;;;;;;;;;;;19.30;75.30;;;;;;5034704;28;20003;-77
2022/03/13 11:49:33;;;;;;;;;;;19.80;71.90;;;;;;5034550;28;19913;-77
2022/03/13 11:52:08;;;;;;;;;;;20.50;72.10;;;;;;5033985;28;20000;-77
2022/03/13 11:54:56;;;;;;;;;;;22.20;69.70;;;;;;5034475;28;19916;-77
2022/03/13 11:57:24;;;;;;;;;;;23.00;65.60;;;;;;5032907;28;20320;-77
2022/03/13 12:00:08;;;;;;;;;;;22.50;66.80;;;;;;5034392;28;19909;-77
2022/03/13 12:02:40;;;;;;;;;;;20.80;67.40;;;;;;5032830;28;19948;-76
2022/03/13 12:05:26;;;;;;;;;;;16.80;77.20;;;;;;5034185;28;20378;-76
2022/03/13 12:08:05;;;;;;;;;;;16.20;87.00;;;;;;5023553;28;19948;-76
2022/03/13 12:10:41;;;;;;;;;;;18.80;84.00;;;;;;5034378;28;19909;-76
2022/03/13 12:13:14;;;;;;;;;;;19.00;81.10;;;;;;5034098;28;20400;-76
2022/03/13 12:15:40;;;;;;;;;;;17.90;82.10;;;;;;5034165;28;19909;-76
2022/03/13 12:18:15;;;;;;;;;;;18.70;79.10;;;;;;5034275;28;19940;-76
2022/03/13 12:20:43;;;;;;;;;;;19.10;75.40;;;;;;5034133;28;19992;-76
2022/03/13 12:23:09;;;;;;;;;;;17.10;77.30;;;;;;5034061;28;19948;-76
2022/03/13 12:25:34;;;;;;;;;;;16.40;78.30;;;;;;5034391;28;19949;-76
2022/03/13 12:28:01;;;;;;;;;;;15.90;81.60;;;;;;5033945;28;19960;-76
2022/03/13 12:30:30;;;;;;;;;;;16.60;78.30;;;;;;5032667;28;19935;-76
2022/03/13 12:32:57;;;;;;;;;;;15.70;78.20;;;;;;5033916;28;19952;-76
2022/03/13 12:35:23;;;;;;;;;;;15.90;81.30;;;;;;5033907;28;19952;-76
2022/03/13 12:37:56;;;;;;;;;;;15.70;80.50;;;;;;5032419;28;19968;-76
2022/03/13 12:40:23;;;;;;;;;;;17.50;81.70;;;;;;5032536;28;20246;-76
2022/03/13 12:42:55;;;;;;;;;;;19.80;74.20;;;;;;5033750;28;19955;-77
2022/03/13 12:45:22;;;;;;;;;;;21.90;68.90;;;;;;5033675;28;19920;-76
2022/03/13 12:47:49;;;;;;;;;;;19.40;73.40;;;;;;5033787;28;20024;-76
2022/03/13 12:50:16;;;;;;;;;;;17.50;75.90;;;;;;5033756;28;19936;-77
2022/03/13 12:53:01;;;;;;;;;;;21.10;70.70;;;;;;5033647;28;20004;-77
2022/03/13 12:55:27;;;;;;;;;;;23.70;61.90;;;;;;5033602;28;19909;-77
2022/03/13 12:57:57;;;;;;;;;;;25.50;59.40;;;;;;5033740;28;19909;-77
2022/03/13 13:00:32;;;;;;;;;;;26.10;57.00;;;;;;5032313;28;19910;-77
2022/03/13 13:02:59;;;;;;;;;;;26.30;54.90;;;;;;5033933;28;19913;-77
2022/03/13 13:05:26;;;;;;;;;;;21.50;57.70;;;;;;5033466;28;19920;-76
2022/03/13 13:07:53;;;;;;;;;;;18.90;65.60;;;;;;5032220;28;19975;-76
2022/03/13 13:10:18;;;;;;;;;;;17.30;68.20;;;;;;5033472;28;20334;-76
2022/03/13 13:12:44;;;;;;;;;;;15.90;73.30;;;;;;5033497;28;19944;-76
2022/03/13 13:15:12;;;;;;;;;;;15.50;75.50;;;;;;5035579;28;19909;-76
2022/03/13 13:17:38;;;;;;;;;;;15.30;78.60;;;;;;5037415;28;19917;-76
2022/03/13 13:20:05;;;;;;;;;;;15.20;91.40;;;;;;5037549;28;19916;-76
2022/03/13 13:22:32;;;;;;;;;;;14.40;94.30;;;;;;5037704;28;19909;-76
2022/03/13 13:24:59;;;;;;;;;;;14.40;96.60;;;;;;5037560;28;19913;-76
2022/03/13 13:27:29;;;;;;;;;;;14.70;97.30;;;;;;5037375;28;19909;-77
2022/03/13 13:29:54;;;;;;;;;;;18.00;93.70;;;;;;5037265;28;19909;-77
2022/03/13 13:32:23;;;;;;;;;;;23.30;76.60;;;;;;5037149;28;20431;-77
2022/03/13 13:35:07;;;;;;;;;;;25.80;65.10;;;;;;5037130;28;19913;-77
2022/03/13 13:37:33;;;;;;;;;;;25.90;61.50;;;;;;5037124;28;19953;-77
2022/03/13 13:40:02;;;;;;;;;;;26.30;58.80;;;;;;5037098;28;19959;-77
2022/03/13 13:42:28;;;;;;;;;;;27.60;56.80;;;;;;5035692;28;19913;-77
2022/03/13 13:44:53;;;;;;;;;;;25.90;53.80;;;;;;5037352;28;19975;-77
2022/03/13 13:47:24;;;;;;;;;;;20.60;61.70;;;;;;5037213;28;19979;-77
2022/03/13 13:49:49;;;;;;;;;;;21.40;64.50;;;;;;5036955;28;19909;-77
2022/03/13 13:52:15;;;;;;;;;;;27.00;58.10;;;;;;5036877;28;20412;-77
2022/03/13 13:54:41;;;;;;;;;;;25.20;54.50;;;;;;5036703;28;19915;-77
2022/03/13 13:57:06;;;;;;;;;;;24.50;57.00;;;;;;5037048;28;19909;-77
2022/03/13 13:59:38;;;;;;;;;;;20.80;59.20;;;;;;5036836;28;19916;-76
2022/03/13 14:02:03;;;;;;;;;;;18.30;66.20;;;;;;5036615;28;19964;-76
2022/03/13 14:04:30;;;;;;;;;;;16.60;73.60;;;;;;5035244;28;20386;-76
2022/03/13 14:06:56;;;;;;;;;;;16.10;76.80;;;;;;5037067;28;19909;-76
2022/03/13 14:09:22;;;;;;;;;;;16.20;84.60;;;;;;5036862;28;19909;-77
2022/03/13 14:11:48;;;;;;;;;;;18.50;85.10;;;;;;5036806;28;19916;-76
2022/03/13 14:14:13;;;;;;;;;;;17.70;79.70;;;;;;5036482;28;19946;-76
2022/03/13 14:16:39;;;;;;;;;;;15.80;87.10;;;;;;5036376;28;19916;-76
2022/03/13 14:19:05;;;;;;;;;;;15.40;92.90;;;;;;5036345;28;19913;-76
2022/03/13 14:21:33;;;;;;;;;;;16.70;93.80;;;;;;5036499;28;19909;-77
2022/03/13 14:23:59;;;;;;;;;;;22.50;77.40;;;;;;5036248;28;19909;-77